Time;durP1;ratioP1;P1;durP2;ratioP2;P2;SDS_P1;SDS_P2;PMS_P1;PMS_P2;Temp;Humidity;BMP_temperature;BMP_pressure;BME280_temperature;BME280_humidity;BME280_pressure;Samples;Min_cycle;Max_cycle;Signal;HPM_P1;HPM_P2
2023/04/13 00:00:43;;;;;;;1.63;1.10;;;;;;;5.98;100.00;99049.22;4942280;29;20039;-90
2023/04/13 00:03:15;;;;;;;2.45;0.80;;;;;;;5.74;100.00;99013.59;4951169;29;20036;-93
2023/04/13 00:06:02;;;;;;;1.60;0.77;;;;;;;5.73;100.00;99023.25;4956984;29;20044;-92
2023/04/13 00:08:36;;;;;;;1.10;0.90;;;;;;;5.79;100.00;99032.63;4943114;29;20091;-92
2023/04/13 00:11:13;;;;;;;3.75;0.85;;;;;;;5.55;100.00;98997.88;4948491;29;20509;-94
2023/04/13 00:13:41;;;;;;;2.90;0.70;;;;;;;5.97;100.00;99068.53;4938586;29;20067;-93
2023/04/13 00:16:30;;;;;;;1.25;0.75;;;;;;;5.99;100.00;99067.50;4933540;29;20394;-94
2023/04/13 00:19:07;;;;;;;0.73;0.55;;;;;;;5.98;100.00;99062.34;4942913;29;20087;-93
2023/04/13 00:21:53;;;;;;;2.25;0.73;;;;;;;5.98;100.00;99070.25;4939058;29;20586;-95
2023/04/13 00:24:35;;;;;;;1.55;0.63;;;;;;;5.81;100.00;99023.75;4937393;29;20091;-93
2023/04/13 00:27:05;;;;;;;1.38;0.57;;;;;;;6.00;100.00;99063.09;4937614;29;20044;-92
2023/04/13 00:29:48;;;;;;;1.25;0.77;;;;;;;5.96;100.00;99061.56;4949399;29;20452;-92
2023/04/13 00:32:37;;;;;;;1.80;1.10;;;;;;;5.85;100.00;99040.19;4930819;29;20039;-92
2023/04/13 00:35:11;;;;;;;2.17;0.70;;;;;;;5.92;100.00;99039.00;4938590;29;20051;-92
2023/04/13 00:37:52;;;;;;;3.65;0.77;;;;;;;6.00;100.00;99042.09;4927900;29;20043;-92
2023/04/13 00:40:30;;;;;;;3.08;1.00;;;;;;;5.89;100.00;99012.88;4922561;29;20119;-92
2023/04/13 00:43:05;;;;;;;1.67;0.60;;;;;;;6.10;100.00;99039.88;4944334;29;20131;-95
2023/04/13 00:45:49;;;;;;;2.63;0.60;;;;;;;6.08;100.00;99039.09;4952410;28;20388;-94
2023/04/13 00:48:23;;;;;;;2.83;0.80;;;;;;;6.08;100.00;99029.44;4921193;29;20050;-94
2023/04/13 00:51:09;;;;;;;1.75;0.68;;;;;;;6.28;100.00;99029.28;4933766;29;20114;-94
2023/04/13 00:53:40;;;;;;;6.13;0.75;;;;;;;6.29;100.00;99032.75;4914881;29;20104;-92
2023/04/13 00:56:12;;;;;;;0.95;0.52;;;;;;;6.36;100.00;99030.66;4927823;29;20114;-93
2023/04/13 00:58:44;;;;;;;1.97;0.80;;;;;;;6.01;100.00;98985.13;4912556;29;20135;-91
2023/04/13 01:01:18;;;;;;;1.50;0.63;;;;;;;5.99;100.00;98986.06;4918107;29;20608;-93
2023/04/13 01:03:52;;;;;;;2.42;1.02;;;;;;;6.33;100.00;99035.13;4932383;29;20086;-93
2023/04/13 01:06:32;;;;;;;3.83;0.60;;;;;;;6.34;100.00;99036.81;4909662;29;20051;-92
2023/04/13 01:09:26;;;;;;;2.23;0.87;;;;;;;6.33;100.00;99044.78;4919877;29;20055;-93
2023/04/13 01:12:03;;;;;;;1.45;0.43;;;;;;;5.98;100.00;98996.66;4938391;29;20491;-93
2023/04/13 01:15:03;;;;;;;2.40;0.68;;;;;;;6.31;100.00;99050.13;4924795;29;20050;-92
2023/04/13 01:18:06;;;;;;;0.52;0.40;;;;;;;6.23;100.00;99048.81;4920603;29;20053;-95
2023/04/13 01:20:58;;;;;;;3.65;0.80;;;;;;;6.21;100.00;99053.31;4951565;29;20074;-93
2023/04/13 01:24:15;;;;;;;2.65;0.60;;;;;;;6.17;100.00;99057.00;4923854;29;20078;-94
2023/04/13 01:27:11;;;;;;;0.45;0.43;;;;;;;5.94;100.00;99024.88;4950985;29;20070;-94
2023/04/13 01:29:51;;;;;;;2.58;0.60;;;;;;;6.14;100.00;99054.56;4934656;29;20052;-92
2023/04/13 01:32:36;;;;;;;1.13;0.60;;;;;;;6.16;100.00;99057.94;4930774;29;20040;-95
2023/04/13 01:35:09;;;;;;;1.40;0.50;;;;;;;6.15;100.00;99062.34;4922872;29;20048;-95
2023/04/13 01:37:56;;;;;;;3.03;0.50;;;;;;;6.05;100.00;99055.00;4906467;29;20237;-92
2023/04/13 01:40:50;;;;;;;1.88;0.50;;;;;;;6.09;100.00;99067.06;4929589;29;20074;-92
2023/04/13 01:43:26;;;;;;;2.25;0.50;;;;;;;6.03;100.00;99059.47;4929832;29;20032;-92
2023/04/13 01:46:08;;;;;;;1.70;0.40;;;;;;;5.98;100.00;99060.56;4918645;29;20050;-94
2023/04/13 01:49:25;;;;;;;1.05;0.60;;;;;;;5.94;100.00;99051.13;4921944;29;20090;-95
2023/04/13 01:52:15;;;;;;;2.90;1.15;;;;;;;5.70;100.00;99018.16;4918124;29;20044;-94
2023/04/13 01:54:59;;;;;;;1.65;0.52;;;;;;;5.69;100.00;99023.47;4921970;29;20132;-94
2023/04/13 01:57:46;;;;;;;3.17;0.88;;;;;;;5.42;100.00;98960.88;4921905;29;20075;-94
2023/04/13 02:00:18;;;;;;;2.08;0.50;;;;;;;5.75;100.00;99016.16;4922277;29;20087;-94
2023/04/13 02:02:53;;;;;;;1.10;0.50;;;;;;;6.07;100.00;99072.41;4920307;29;20056;-93
2023/04/13 02:05:41;;;;;;;3.47;0.68;;;;;;;5.65;100.00;99012.28;4917787;29;20043;-95
2023/04/13 02:08:23;;;;;;;2.03;0.60;;;;;;;5.89;100.00;99034.75;4922831;29;20052;-95
2023/04/13 02:11:04;;;;;;;4.15;0.85;;;;;;;5.78;100.00;99021.28;4923729;29;20123;-95
2023/04/13 02:13:35;;;;;;;5.30;0.60;;;;;;;5.53;100.00;98974.34;4920046;29;20135;-94
2023/04/13 02:16:37;;;;;;;3.20;0.55;;;;;;;5.84;100.00;99031.44;4931653;29;20139;-94
2023/04/13 02:19:23;;;;;;;4.43;0.60;;;;;;;5.67;100.00;99018.28;4934127;28;20122;-95
2023/04/13 02:21:56;;;;;;;4.00;1.25;;;;;;;5.70;100.00;99022.56;4931839;28;20042;-95
2023/04/13 02:24:44;;;;;;;3.25;0.63;;;;;;;5.78;100.00;99037.03;4928091;28;20048;-94
2023/04/13 02:27:19;;;;;;;2.47;0.52;;;;;;;5.76;100.00;99032.78;4930258;29;20028;-95
2023/04/13 02:30:16;;;;;;;2.63;0.80;;;;;;;5.80;100.00;99053.56;4928353;29;20055;-95
2023/04/13 02:33:08;;;;;;;3.60;0.80;;;;;;;5.95;100.00;99070.38;4920930;29;20054;-94
2023/04/13 02:36:04;;;;;;;1.38;0.73;;;;;;;6.02;100.00;99073.53;4909315;29;20099;-94
2023/04/13 02:38:48;;;;;;;1.17;0.52;;;;;;;5.98;100.00;99068.44;4916133;29;20063;-93
2023/04/13 02:41:23;;;;;;;3.00;0.70;;;;;;;5.73;100.00;99018.00;4941130;29;20482;-94
2023/04/13 02:44:05;;;;;;;3.95;0.80;;;;;;;5.51;100.00;98980.59;4941440;29;20554;-94
2023/04/13 02:47:12;;;;;;;3.33;0.98;;;;;;;6.22;100.00;99083.94;4938773;29;20044;-93
2023/04/13 02:50:01;;;;;;;2.85;0.70;;;;;;;6.26;100.00;99080.22;4939512;29;20044;-94
2023/04/13 02:52:36;;;;;;;4.20;0.70;;;;;;;6.30;100.00;99081.75;4913556;29;20517;-94
2023/04/13 02:55:04;;;;;;;3.10;0.73;;;;;;;6.29;100.00;99067.78;4918152;29;20364;-94
2023/04/13 02:57:34;;;;;;;;;;;;;;;6.41;100.00;99082.06;4920369;29;20039;-95
2023/04/13 03:00:15;;;;;;;2.67;0.55;;;;;;;6.49;100.00;99077.25;4941407;29;19954;-94
2023/04/13 03:02:55;;;;;;;;;;;;;;;6.51;100.00;99075.41;4930806;29;20048;-94
2023/04/13 03:05:40;;;;;;;3.13;0.60;;;;;;;6.56;100.00;99077.81;4917678;29;19919;-94
2023/04/13 03:08:10;;;;;;;4.00;0.60;;;;;;;6.53;100.00;99065.66;4934736;29;20044;-94
2023/04/13 03:10:47;;;;;;;5.43;0.50;;;;;;;6.53;100.00;99055.16;4930112;29;20429;-94
2023/04/13 03:13:29;;;;;;;3.83;0.70;;;;;;;6.59;100.00;99061.88;4922057;29;20039;-94
2023/04/13 03:16:01;;;;;;;2.85;0.40;;;;;;;6.61;100.00;99060.03;4933966;29;20044;-94
2023/04/13 03:18:42;;;;;;;2.63;0.68;;;;;;;6.65;100.00;99065.03;4947241;29;20424;-94
2023/04/13 03:21:14;;;;;;;3.55;0.88;;;;;;;6.69;100.00;99053.41;4921100;29;20040;-92
2023/04/13 03:23:54;;;;;;;4.28;0.70;;;;;;;6.39;100.00;98994.53;4959550;28;20107;-93
2023/04/13 03:26:26;;;;;;;2.70;0.68;;;;;;;6.70;100.00;99038.47;4925546;28;20032;-94
2023/04/13 03:29:11;;;;;;;3.15;0.63;;;;;;;6.79;100.00;99047.66;4929006;28;20044;-93
2023/04/13 03:32:03;;;;;;;4.10;0.70;;;;;;;6.73;100.00;99038.31;4942582;28;20128;-93
2023/04/13 03:34:43;;;;;;;5.18;0.80;;;;;;;6.78;100.00;99052.06;4955559;28;20144;-93
2023/04/13 03:37:17;;;;;;;2.83;0.85;;;;;;;6.76;100.00;99053.09;4957396;28;20046;-93
2023/04/13 03:39:45;;;;;;;5.30;0.80;;;;;;;6.76;100.00;99043.44;4943552;28;20043;-93
2023/04/13 03:42:14;;;;;;;;;;;;;;;6.85;100.00;99053.47;4941184;28;20055;-93
2023/04/13 03:44:41;;;;;;;2.80;0.60;;;;;;;6.84;100.00;99051.75;4937004;28;20291;-93
2023/04/13 03:47:12;;;;;;;4.88;0.73;;;;;;;6.84;100.00;99051.75;4938229;28;20044;-92
2023/04/13 03:49:45;;;;;;;3.08;0.73;;;;;;;6.82;100.00;99058.88;4943955;28;20071;-92
2023/04/13 03:52:15;;;;;;;2.25;0.88;;;;;;;6.92;100.00;99054.84;4941814;28;20072;-93
2023/04/13 03:54:42;;;;;;;4.50;0.55;;;;;;;6.63;100.00;99003.75;4930586;28;20072;-93
2023/04/13 03:57:24;;;;;;;3.20;0.80;;;;;;;6.71;100.00;99018.28;4924916;29;20095;-93
2023/04/13 04:00:00;;;;;;;4.63;0.90;;;;;;;6.89;100.00;99044.47;4962208;29;20046;-93
2023/04/13 04:02:30;;;;;;;4.10;0.95;;;;;;;6.97;100.00;99054.56;4941457;29;20044;-93
2023/04/13 04:05:00;;;;;;;6.43;0.90;;;;;;;6.96;100.00;99051.09;4926925;29;20071;-92
2023/04/13 04:07:34;;;;;;;4.53;0.85;;;;;;;6.93;100.00;99034.63;4910075;29;20061;-93
2023/04/13 04:10:18;;;;;;;5.85;0.80;;;;;;;7.04;100.00;99040.16;4926766;29;20048;-94
2023/04/13 04:13:03;;;;;;;4.38;0.75;;;;;;;7.05;100.00;99039.25;4922014;29;20040;-93
2023/04/13 04:15:33;;;;;;;3.92;0.88;;;;;;;6.95;100.00;99028.34;4921798;28;20146;-93
2023/04/13 04:18:15;;;;;;;7.05;1.00;;;;;;;6.86;100.00;99020.09;4928377;28;20032;-94
2023/04/13 04:29:14;;;;;;;8.05;1.33;;;;;;;6.63;100.00;98959.03;5049376;23;20182;-94
2023/04/13 04:31:58;;;;;;;4.40;1.00;;;;;;;6.83;100.00;98993.94;4943376;28;20112;-92
2023/04/13 04:34:35;;;;;;;2.85;0.80;;;;;;;6.94;100.00;99005.59;4935691;28;20028;-93
2023/04/13 04:37:20;;;;;;;4.07;1.00;;;;;;;6.84;100.00;98985.13;5278738;23;20185;-92
2023/04/13 04:40:08;;;;;;;7.90;0.85;;;;;;;6.84;100.00;98964.06;4939304;28;20052;-94
2023/04/13 04:43:11;;;;;;;4.25;1.10;;;;;;;6.72;100.00;98972.63;4939062;28;20071;-93
2023/04/13 04:46:03;;;;;;;5.90;1.40;;;;;;;6.72;100.00;98941.06;4932859;28;20040;-93
2023/04/13 04:51:28;;;;;;;7.88;1.00;;;;;;;7.26;100.00;99053.84;4993078;23;20045;-93
2023/04/13 04:54:38;;;;;;;2.78;1.00;;;;;;;7.28;100.00;99066.94;4939155;28;20027;-94
2023/04/13 05:00:43;;;;;;;;;;;;;;;7.27;100.00;99084.50;4946736;28;20042;-94
2023/04/13 05:25:35;;;;;;;6.28;1.35;;;;;;;7.68;100.00;99102.47;5524172;23;21265;-94
2023/04/13 05:34:37;;;;;;;5.97;1.10;;;;;;;7.39;100.00;99049.63;4988519;23;20123;-94
2023/04/13 05:37:22;;;;;;;6.80;1.30;;;;;;;7.33;100.00;99054.38;4942505;29;20044;-94
2023/04/13 05:40:13;;;;;;;4.57;0.57;;;;;;;7.18;100.00;99029.75;4935581;29;20051;-94
2023/04/13 05:45:58;;;;;;;4.47;0.85;;;;;;;7.60;100.00;99089.72;5075000;23;20056;-95
2023/04/13 05:51:55;;;;;;;5.80;1.42;;;;;;;7.23;100.00;99011.06;5171797;23;20385;-95
2023/04/13 05:54:46;;;;;;;6.05;0.88;;;;;;;7.62;100.00;99076.47;4929263;29;20039;-95
2023/04/13 05:57:45;;;;;;;6.10;1.35;;;;;;;7.47;100.00;99053.59;4919041;29;20059;-94
2023/04/13 06:00:31;;;;;;;8.07;1.40;;;;;;;7.25;100.00;99025.81;4913189;29;20085;-94
2023/04/13 06:03:25;;;;;;;8.00;1.02;;;;;;;7.88;100.00;99120.63;4912763;29;20112;-94
2023/04/13 06:06:08;;;;;;;7.22;2.08;;;;;;;7.89;100.00;99129.41;4926889;29;20076;-92
2023/04/13 06:08:45;;;;;;;6.60;1.50;;;;;;;7.80;100.00;99114.09;4905247;29;20044;-94
2023/04/13 06:11:23;;;;;;;8.43;1.70;;;;;;;7.32;100.00;99024.56;4896073;29;20076;-95
2023/04/13 06:13:57;;;;;;;6.32;1.55;;;;;;;7.63;100.00;99100.09;4888901;29;20074;-94
2023/04/13 06:16:40;;;;;;;8.38;1.20;;;;;;;7.69;100.00;99107.66;4906353;29;20075;-95
2023/04/13 06:19:40;;;;;;;5.50;1.10;;;;;;;7.78;100.00;99148.44;4920048;29;20048;-94
2023/04/13 06:22:43;;;;;;;12.13;1.88;;;;;;;7.85;100.00;99136.66;4914521;29;20078;-92
2023/04/13 06:25:32;;;;;;;;;;;;;;;;;;;;;
2023/04/13 06:28:15;;;;;;;10.43;1.27;;;;;;;7.28;100.00;99072.19;4919825;29;20043;-93
2023/04/13 06:30:51;;;;;;;7.10;1.77;;;;;;;7.54;100.00;99121.69;4910582;29;20036;-93
2023/04/13 06:33:45;;;;;;;9.25;1.13;;;;;;;7.75;100.00;99177.59;4924410;29;20120;-94
2023/04/13 06:36:31;;;;;;;9.05;1.25;;;;;;;7.58;100.00;99175.88;4924062;29;20044;-94
2023/04/13 06:39:14;;;;;;;8.27;1.60;;;;;;;7.38;100.00;99137.47;4924181;29;20060;-92
2023/04/13 06:42:08;;;;;;;5.90;1.70;;;;;;;7.27;100.00;99110.84;4931084;29;20055;-92
2023/04/13 06:45:18;;;;;;;7.15;1.55;;;;;;;7.41;100.00;99160.13;5061548;23;20083;-92
2023/04/13 06:48:08;;;;;;;11.57;1.90;;;;;;;7.45;100.00;99158.19;5089628;23;20048;-92
2023/04/13 06:51:01;;;;;;;7.78;2.13;;;;;;;7.50;100.00;99153.53;4928765;29;20059;-93
2023/04/13 06:54:16;;;;;;;10.30;1.55;;;;;;;7.73;100.00;99197.91;4939775;28;20121;-93
2023/04/13 06:57:17;;;;;;;8.88;1.25;;;;;;;7.80;100.00;99193.16;5013276;23;20135;-90
2023/04/13 07:00:33;;;;;;;10.32;2.00;;;;;;;7.98;100.00;99194.81;4953506;28;20068;-89
2023/04/13 07:03:20;;;;;;;10.30;1.90;;;;;;;7.91;100.00;99185.50;4947573;29;20079;-91
2023/04/13 07:05:57;;;;;;;10.77;1.70;;;;;;;7.97;100.00;99199.22;4949461;28;20106;-92
2023/04/13 07:08:40;;;;;;;9.07;2.03;;;;;;;7.96;100.00;99192.25;4941709;28;20059;-92
2023/04/13 07:11:08;;;;;;;8.35;1.85;;;;;;;7.55;100.00;99102.31;4936335;28;20028;-92
2023/04/13 07:13:52;;;;;;;8.70;2.03;;;;;;;8.08;100.00;99165.19;4959682;28;20070;-91
2023/04/13 07:16:58;;;;;;;4.72;1.23;;;;;;;8.51;100.00;99199.69;4941521;28;20116;-91
2023/04/13 07:19:46;;;;;;;8.10;1.52;;;;;;;8.30;100.00;99193.00;4948768;28;20028;-90
2023/04/13 07:22:19;;;;;;;10.90;1.50;;;;;;;7.70;100.00;99116.41;4941959;28;20043;-91
2023/04/13 07:24:57;;;;;;;7.38;1.20;;;;;;;8.08;100.00;99195.97;4932011;29;20032;-93
2023/04/13 07:27:33;;;;;;;7.40;1.77;;;;;;;7.83;100.00;99161.38;4945489;29;20119;-93
2023/04/13 07:30:48;;;;;;;9.05;1.92;;;;;;;8.18;100.00;99228.81;4958620;28;20050;-93
2023/04/13 07:33:23;;;;;;;11.65;2.08;;;;;;;7.95;100.00;99187.06;4960178;28;20035;-90
2023/04/13 07:35:56;;;;;;;8.30;1.42;;;;;;;8.07;100.00;99226.75;4940179;28;20055;-91
2023/04/13 07:38:28;;;;;;;11.23;1.60;;;;;;;8.13;100.00;99240.56;4957617;28;20063;-90
2023/04/13 07:41:07;;;;;;;8.88;1.60;;;;;;;8.16;100.00;99235.13;4949858;28;20055;-91
2023/04/13 07:44:07;;;;;;;;;;;;;;;8.15;100.00;99255.34;4961344;28;20052;-91
2023/04/13 07:47:07;;;;;;;11.02;1.83;;;;;;;7.89;100.00;99190.88;4962641;28;19949;-92
2023/04/13 07:49:53;;;;;;;12.18;3.10;;;;;;;8.24;100.00;99246.06;4954422;29;20043;-91
2023/04/13 07:52:40;;;;;;;10.15;1.88;;;;;;;8.15;100.00;99207.03;4950027;28;20046;-91
2023/04/13 07:55:10;;;;;;;6.35;1.60;;;;;;;8.25;100.00;99247.78;4946108;28;20056;-91
2023/04/13 07:57:45;;;;;;;7.65;1.75;;;;;;;8.15;100.00;99233.41;4956887;28;20051;-90
2023/04/13 08:00:37;;;;;;;;;;;;;;;8.37;100.00;99257.66;4953118;28;20043;-91
2023/04/13 08:03:41;;;;;;;7.00;1.50;;;;;;;8.40;100.00;99252.22;4950029;28;20013;-91
2023/04/13 08:06:20;;;;;;;6.55;1.30;;;;;;;8.10;100.00;99173.88;4943222;28;20052;-92
2023/04/13 08:09:12;;;;;;;6.50;1.33;;;;;;;8.82;100.00;99241.00;4955987;29;20050;-92
2023/04/13 08:11:41;;;;;;;9.82;1.40;;;;;;;8.96;100.00;99250.78;4943439;29;20047;-91
2023/04/13 08:14:10;;;;;;;7.30;1.60;;;;;;;8.85;100.00;99266.38;4951056;29;20047;-91
2023/04/13 08:16:37;;;;;;;8.43;1.77;;;;;;;8.89;100.00;99267.91;4958778;28;20077;-92
2023/04/13 08:19:07;;;;;;;7.95;1.58;;;;;;;8.81;100.00;99243.75;4957434;29;20047;-93
2023/04/13 08:21:39;;;;;;;5.97;1.17;;;;;;;8.98;100.00;99272.63;4948460;28;20112;-92
2023/04/13 08:24:08;;;;;;;;;;;;;;;8.97;100.00;99284.16;4948525;28;20075;-91
2023/04/13 08:26:37;;;;;;;7.07;1.70;;;;;;;8.74;100.00;99275.78;4955752;28;19938;-90
2023/04/13 08:29:10;;;;;;;6.70;1.60;;;;;;;8.63;100.00;99264.13;4958629;28;20111;-90
2023/04/13 08:32:00;;;;;;;5.15;1.17;;;;;;;8.53;100.00;99266.44;4954527;28;20047;-91
2023/04/13 08:34:43;;;;;;;9.65;5.25;;;;;;;8.58;100.00;99288.13;4949318;28;20109;-91
2023/04/13 08:37:15;;;;;;;8.52;1.42;;;;;;;8.41;100.00;99267.13;4951255;28;20310;-92
2023/04/13 08:39:47;;;;;;;9.02;2.25;;;;;;;8.50;100.00;99276.31;4966752;28;20087;-92
2023/04/13 08:42:25;;;;;;;7.80;3.22;;;;;;;8.40;100.00;99271.53;4955493;28;20039;-92
2023/04/13 08:45:17;;;;;;;7.82;2.88;;;;;;;8.61;100.00;99279.19;4971462;28;20035;-93
2023/04/13 08:48:02;;;;;;;7.18;1.40;;;;;;;8.85;100.00;99303.34;4976562;28;20038;-92
2023/04/13 08:50:44;;;;;;;6.53;1.50;;;;;;;8.69;100.00;99271.69;4947520;28;20074;-90
2023/04/13 08:53:17;;;;;;;6.88;1.30;;;;;;;8.84;100.00;99259.38;4958302;28;20043;-92
2023/04/13 08:55:49;;;;;;;;;;;;;;;9.09;100.00;99297.50;5314288;23;20044;-91
2023/04/13 08:58:24;;;;;;;7.72;1.90;;;;;;;8.90;100.00;99246.69;4943656;28;19990;-90
2023/04/13 09:01:06;;;;;;;5.30;1.30;;;;;;;9.11;100.00;99248.09;4938129;28;20031;-91
2023/04/13 09:03:54;;;;;;;6.30;1.40;;;;;;;9.47;100.00;99284.66;4956281;28;20040;-91
2023/04/13 09:06:42;;;;;;;4.85;1.02;;;;;;;9.37;100.00;99285.31;4941984;28;20074;-91
2023/04/13 09:09:28;;;;;;;3.50;1.10;;;;;;;9.36;100.00;99296.81;4932712;28;20046;-91
2023/04/13 09:12:14;;;;;;;8.50;1.80;;;;;;;9.48;100.00;99304.84;4947393;28;20126;-91
2023/04/13 09:14:51;;;;;;;5.03;1.23;;;;;;;9.26;100.00;99259.53;4952043;23;20056;-92
2023/04/13 09:17:42;;;;;;;1.58;0.90;;;;;;;9.31;100.00;99269.81;4966568;28;20050;-92
2023/04/13 09:20:20;;;;;;;4.55;1.30;;;;;;;9.56;100.00;99298.28;4941991;28;20106;-91
2023/04/13 09:22:51;;;;;;;4.25;1.20;;;;;;;9.49;100.00;99277.50;4945532;28;20051;-90
2023/04/13 09:25:38;;;;;;;3.55;1.20;;;;;;;9.52;100.00;99278.25;4930648;28;20039;-92
2023/04/13 09:28:18;;;;;;;4.25;1.00;;;;;;;9.61;100.00;99288.25;4950564;28;20042;-92
2023/04/13 09:30:50;;;;;;;4.03;1.30;;;;;;;9.21;100.00;99226.41;4931625;28;20060;-90
2023/04/13 09:33:18;;;;;;;4.75;1.30;;;;;;;9.88;100.00;99320.13;4939439;28;20050;-92
2023/04/13 09:35:45;;;;;;;5.28;1.48;;;;;;;9.68;100.00;99261.38;4942420;28;20059;-93
2023/04/13 09:38:31;;;;;;;5.45;1.35;;;;;;;9.91;100.00;99306.72;4949665;28;20099;-92
2023/04/13 09:41:08;;;;;;;4.88;1.20;;;;;;;9.57;100.00;99286.75;4910458;28;20114;-92
2023/04/13 09:43:39;;;;;;;5.25;1.45;;;;;;;9.70;100.00;99314.16;4946307;28;20048;-91
2023/04/13 09:46:12;;;;;;;2.83;1.20;;;;;;;9.69;100.00;99312.44;4957330;28;20027;-91
2023/04/13 09:49:09;;;;;;;4.97;1.55;;;;;;;9.87;100.00;99332.47;4923670;28;20051;-91
2023/04/13 09:51:39;;;;;;;8.90;1.95;;;;;;;10.02;100.00;99323.59;4917960;28;20040;-92
2023/04/13 09:54:10;;;;;;;4.47;1.00;;;;;;;10.35;100.00;99333.06;4891264;28;20060;-92
2023/04/13 09:56:52;;;;;;;3.38;1.20;;;;;;;10.23;100.00;99313.50;4927341;29;20067;-90
2023/04/13 09:59:23;;;;;;;3.40;1.10;;;;;;;10.36;100.00;99324.19;4905528;29;20044;-93
2023/04/13 10:02:01;;;;;;;6.25;1.52;;;;;;;10.26;100.00;99284.22;4919193;29;20055;-93
2023/04/13 10:04:34;;;;;;;5.53;1.40;;;;;;;10.81;100.00;99329.19;4965031;23;20061;-91
2023/04/13 10:07:04;;;;;;;5.95;1.30;;;;;;;10.82;99.22;99332.69;4920945;29;20037;-90
2023/04/13 10:09:49;;;;;;;4.70;1.27;;;;;;;10.75;98.29;99323.44;4896995;29;20036;-92
2023/04/13 10:12:16;;;;;;;;;;;;;;;10.45;99.70;99331.53;4934561;28;20083;-91
2023/04/13 10:15:51;;;;;;;3.22;0.95;;;;;;;10.13;99.87;99321.13;4910961;29;19975;-92
2023/04/13 10:18:51;;;;;;;3.72;1.50;;;;;;;10.04;100.00;99305.84;4945302;28;20056;-91
2023/04/13 10:21:22;;;;;;;6.22;1.15;;;;;;;10.06;100.00;99319.84;4933731;28;20052;-91
2023/04/13 10:23:58;;;;;;;4.75;1.52;;;;;;;10.12;100.00;99311.50;4916319;29;20051;-92
2023/04/13 10:26:30;;;;;;;6.53;2.63;;;;;;;10.32;99.69;99305.00;4918534;29;20052;-89
2023/04/13 10:29:01;;;;;;;5.88;0.93;;;;;;;10.62;96.41;99336.59;4924485;28;20041;-91
2023/04/13 10:32:22;;;;;;;2.40;1.23;;;;;;;10.48;96.29;99315.47;4911506;29;20040;-92
2023/04/13 10:35:10;;;;;;;2.67;0.82;;;;;;;10.05;100.00;99282.91;4905482;29;20056;-90
2023/04/13 10:38:15;;;;;;;2.63;0.85;;;;;;;9.98;100.00;99281.56;4898919;29;20032;-91
2023/04/13 10:40:57;;;;;;;4.53;1.25;;;;;;;10.25;100.00;99316.91;4917690;29;20052;-90
2023/04/13 10:43:34;;;;;;;2.47;0.95;;;;;;;10.20;100.00;99316.38;4914965;29;20060;-91
2023/04/13 10:46:08;;;;;;;2.90;1.05;;;;;;;10.23;100.00;99320.63;4910030;29;20087;-91
2023/04/13 10:48:36;;;;;;;3.95;1.10;;;;;;;10.09;100.00;99282.59;4915199;29;20037;-93
2023/04/13 10:51:06;;;;;;;3.50;1.05;;;;;;;10.62;100.00;99315.44;4922174;29;20045;-92
2023/04/13 10:53:44;;;;;;;4.25;1.13;;;;;;;10.94;100.00;99315.13;4921097;29;20060;-92
2023/04/13 10:56:23;;;;;;;5.25;1.15;;;;;;;11.06;100.00;99280.72;4911293;29;20049;-90
2023/04/13 10:58:52;;;;;;;3.38;0.80;;;;;;;11.11;98.18;99276.00;4906736;29;20051;-92
2023/04/13 11:01:30;;;;;;;3.40;1.33;;;;;;;11.24;97.24;99323.72;4907198;29;20040;-92
2023/04/13 11:04:07;;;;;;;3.65;1.30;;;;;;;11.16;100.00;99268.59;4906449;29;20045;-92
2023/04/13 11:07:13;;;;;;;2.83;1.00;;;;;;;11.59;96.45;99297.47;4914509;29;20029;-92
2023/04/13 11:09:59;;;;;;;4.05;1.23;;;;;;;11.75;92.70;99276.06;4920158;29;20069;-91
2023/04/13 11:12:29;;;;;;;;;;;;;;;12.27;91.68;99305.97;4900448;29;20116;-92
2023/04/13 11:15:02;;;;;;;3.90;1.08;;;;;;;12.49;84.94;99299.94;4922698;29;19911;-90
2023/04/13 11:17:39;;;;;;;3.67;1.52;;;;;;;12.84;80.65;99315.13;4914804;29;20055;-93
2023/04/13 11:20:33;;;;;;;3.58;1.35;;;;;;;12.55;72.34;99243.75;4931255;28;20065;-92
2023/04/13 11:23:17;;;;;;;4.05;1.02;;;;;;;12.70;73.91;99273.66;4922864;28;20056;-93
2023/04/13 11:26:00;;;;;;;3.72;0.98;;;;;;;12.91;70.98;99300.44;4922670;29;20058;-92
2023/04/13 11:28:57;;;;;;;2.63;0.82;;;;;;;12.48;69.55;99324.81;4911627;29;20474;-92
2023/04/13 11:31:37;;;;;;;2.53;0.93;;;;;;;12.37;73.15;99319.44;4908396;29;20100;-92
2023/04/13 11:34:13;;;;;;;7.78;3.15;;;;;;;12.60;71.02;99323.06;4899974;29;20063;-92
2023/04/13 11:36:47;;;;;;;6.40;2.95;;;;;;;12.53;68.84;99311.22;4886321;29;20111;-93
2023/04/13 11:39:14;;;;;;;2.58;1.00;;;;;;;12.18;69.14;99309.25;4909056;29;20055;-93
2023/04/13 11:41:47;;;;;;;2.90;0.93;;;;;;;11.81;71.41;99283.59;4882592;29;20143;-93
2023/04/13 11:44:16;;;;;;;5.75;1.35;;;;;;;11.92;71.92;99289.88;4907329;29;20044;-92
2023/04/13 11:46:46;;;;;;;2.63;0.65;;;;;;;11.79;71.52;99310.25;4907728;29;20044;-92
2023/04/13 11:49:22;;;;;;;3.15;0.98;;;;;;;11.18;73.18;99263.16;4907615;29;20066;-93
2023/04/13 11:51:55;;;;;;;6.38;1.00;;;;;;;10.96;83.98;99324.69;4889787;29;20057;-91
2023/04/13 11:54:25;;;;;;;2.53;1.10;;;;;;;10.46;97.68;99326.16;4900515;29;20143;-90
2023/04/13 11:56:57;;;;;;;3.50;1.00;;;;;;;10.04;100.00;99334.94;4902020;29;20127;-91
2023/04/13 11:59:28;;;;;;;4.95;1.52;;;;;;;9.48;100.00;99327.78;4914914;29;20052;-90
2023/04/13 12:01:55;;;;;;;3.42;1.50;;;;;;;9.33;100.00;99310.19;4921926;29;20044;-92
2023/04/13 12:04:39;;;;;;;4.13;1.38;;;;;;;9.66;100.00;99302.91;4932794;28;20044;-93
2023/04/13 12:07:21;;;;;;;2.42;1.17;;;;;;;9.93;100.00;99297.72;4924465;29;20037;-93
2023/04/13 12:10:05;;;;;;;2.97;1.50;;;;;;;10.23;100.00;99320.63;4910800;29;20040;-93
2023/04/13 12:13:14;;;;;;;3.42;1.30;;;;;;;10.38;100.00;99288.75;4942465;29;20061;-93
2023/04/13 12:16:03;;;;;;;3.28;1.00;;;;;;;10.63;100.00;99284.50;4914559;29;20047;-93
2023/04/13 12:19:20;;;;;;;26.00;15.68;;;;;;;10.80;100.00;99298.34;4929640;28;20044;-94
2023/04/13 12:22:20;;;;;;;1.83;0.90;;;;;;;10.65;100.00;99230.53;4919422;29;20051;-93
2023/04/13 12:25:19;;;;;;;3.03;1.40;;;;;;;10.87;100.00;99240.53;4931091;29;20043;-94
2023/04/13 12:28:02;;;;;;;2.85;0.90;;;;;;;10.90;100.00;99251.78;4933767;29;20400;-94
2023/04/13 12:30:41;;;;;;;2.22;0.98;;;;;;;10.61;100.00;99242.25;4936013;29;20155;-95
2023/04/13 12:33:29;;;;;;;4.03;1.10;;;;;;;10.98;100.00;99292.81;4937410;29;20052;-94
2023/04/13 12:36:11;;;;;;;4.20;2.03;;;;;;;10.72;100.00;99236.25;4907291;29;20050;-93
2023/04/13 12:38:51;;;;;;;3.55;1.38;;;;;;;10.66;100.00;99250.75;4905286;29;20177;-93
2023/04/13 12:41:27;;;;;;;3.05;1.02;;;;;;;10.90;98.38;99294.16;4896132;29;20067;-92
2023/04/13 12:43:54;;;;;;;3.00;0.88;;;;;;;10.88;92.53;99284.59;4901168;29;20092;-92
2023/04/13 12:46:23;;;;;;;2.67;1.05;;;;;;;11.00;90.26;99305.00;4915537;29;20062;-94
2023/04/13 12:49:00;;;;;;;3.67;0.80;;;;;;;11.02;87.58;99295.13;4922299;29;20032;-93
2023/04/13 12:51:31;;;;;;;3.33;1.02;;;;;;;10.70;91.20;99272.59;4905936;29;20048;-92
2023/04/13 12:54:12;;;;;;;3.67;1.00;;;;;;;10.72;92.20;99303.28;4910650;29;20104;-92
2023/04/13 12:56:42;;;;;;;4.90;1.02;;;;;;;10.68;96.21;99301.81;4909115;29;20044;-92
2023/04/13 12:59:16;;;;;;;4.20;0.90;;;;;;;10.40;98.01;99257.72;4936205;29;20059;-93
2023/04/13 13:02:00;;;;;;;2.50;0.73;;;;;;;10.31;93.92;99236.31;4920149;29;20055;-91
2023/04/13 13:04:29;;;;;;;3.10;0.93;;;;;;;10.36;100.00;99289.78;4915485;29;20143;-94
2023/04/13 13:07:02;;;;;;;2.85;0.60;;;;;;;9.88;100.00;99323.59;4904198;29;20109;-92
2023/04/13 13:09:45;;;;;;;1.45;0.32;;;;;;;9.03;100.00;99332.19;4913604;29;20064;-92
2023/04/13 13:12:31;;;;;;;0.60;0.30;;;;;;;8.30;100.00;99293.22;4906161;29;20052;-93
2023/04/13 13:15:13;;;;;;;2.45;0.35;;;;;;;8.06;100.00;99325.25;4892927;29;20489;-91
2023/04/13 13:17:54;;;;;;;0.10;0.10;;;;;;;7.86;100.00;99312.31;4924402;28;20029;-92
2023/04/13 13:20:52;;;;;;;0.60;0.20;;;;;;;7.75;100.00;99314.63;4912819;29;20135;-93
2023/04/13 13:23:38;;;;;;;0.60;0.20;;;;;;;7.97;100.00;99372.34;4908649;29;20896;-94
2023/04/13 13:26:16;;;;;;;1.85;0.30;;;;;;;7.97;100.00;99353.91;4911067;29;20044;-92
2023/04/13 13:28:51;;;;;;;1.35;0.40;;;;;;;7.92;100.00;99324.28;4911000;29;20116;-93
2023/04/13 13:31:29;;;;;;;0.40;0.25;;;;;;;8.21;100.00;99357.84;4910305;29;20044;-93
2023/04/13 13:33:56;;;;;;;0.38;0.28;;;;;;;8.47;100.00;99377.59;4894110;29;20110;-93